createdAt,value
2018-12-27T00:05:06.437Z,97188.58
2018-12-27T00:07:36.429Z,97183.30
2018-12-27T00:10:06.827Z,97187.76
2018-12-27T00:12:55.860Z,97180.98
2018-12-27T00:24:05.929Z,97186.09
2018-12-27T00:26:36.390Z,97186.09
2018-12-27T00:29:25.436Z,97182.63
2018-12-27T00:35:07.722Z,97177.97
2018-12-27T00:37:56.752Z,97180.60
2018-12-27T00:43:38.928Z,97178.78
2018-12-27T00:46:39.267Z,97176.15
2018-12-27T00:48:40.979Z,97175.65
2018-12-27T00:51:30.225Z,97177.47
2018-12-27T00:54:33.394Z,97176.64
2018-12-27T00:56:51.053Z,97177.97
2018-12-27T00:59:40.002Z,97173.72
2018-12-27T01:08:31.307Z,97176.64
2018-12-27T01:11:20.510Z,97175.33
2018-12-27T01:14:01.083Z,97176.15
2018-12-27T01:16:34.172Z,97170.87
2018-12-27T01:19:23.083Z,97172.19
2018-12-27T01:21:53.165Z,97168.23
2018-12-27T01:24:23.742Z,97170.19
2018-12-27T01:27:13.340Z,97170.19
2018-12-27T01:29:43.913Z,97169.38
2018-12-27T01:32:14.000Z,97168.38
2018-12-27T01:34:44.096Z,97165.73
2018-12-27T01:37:36.154Z,97165.23
2018-12-27T01:40:06.484Z,97165.38
2018-12-27T01:42:36.551Z,97164.06
2018-12-27T01:45:25.872Z,97162.74
2018-12-27T01:47:56.100Z,97166.20
2018-12-27T01:50:26.112Z,97168.66
2018-12-27T01:53:15.219Z,97167.02
2018-12-27T01:55:45.633Z,97161.25
2018-12-27T01:58:15.769Z,97158.61
2018-12-27T02:01:05.297Z,97161.36
2018-12-27T02:03:35.378Z,97156.40
2018-12-27T02:06:05.538Z,97155.26
2018-12-27T02:08:35.896Z,97153.77
2018-12-27T02:11:05.960Z,97155.41
2018-12-27T02:13:36.550Z,97162.83
2018-12-27T02:16:06.600Z,97151.94
2018-12-27T02:18:36.720Z,97155.08
2018-12-27T02:21:07.172Z,97147.66
2018-12-27T02:24:16.575Z,97152.62
2018-12-27T02:26:46.697Z,97145.52
2018-12-27T02:29:16.788Z,97141.39
2018-12-27T02:32:06.205Z,97139.75
2018-12-27T02:34:36.350Z,97140.24
2018-12-27T02:37:06.406Z,97135.78
2018-12-27T02:39:36.532Z,97133.47
2018-12-27T02:42:25.749Z,97128.19
2018-12-27T02:44:55.840Z,97119.77
2018-12-27T02:47:25.973Z,97119.27
2018-12-27T02:50:15.178Z,97117.95
2018-12-27T02:52:45.540Z,97110.03
2018-12-27T02:55:15.668Z,97114.31
2018-12-27T02:58:04.865Z,97101.61
2018-12-27T03:00:34.998Z,97102.94
2018-12-27T03:03:05.588Z,97091.38
2018-12-27T03:05:54.787Z,97086.09
2018-12-27T03:08:24.879Z,97087.42
2018-12-27T03:10:55.029Z,97084.78
2018-12-27T03:17:13.896Z,97083.59
2018-12-27T03:20:03.853Z,97085.23
2018-12-27T03:22:34.298Z,97080.28
2018-12-27T03:25:04.482Z,97082.92
2018-12-27T03:27:53.374Z,97074.47
2018-12-27T03:33:19.125Z,97074.47
2018-12-27T03:36:08.060Z,97065.05
2018-12-27T03:38:38.166Z,97070.83
2018-12-27T03:41:08.280Z,97065.77
2018-12-27T03:43:57.507Z,97065.94
2018-12-27T03:46:27.708Z,97066.77
2018-12-27T03:48:57.793Z,97063.41
2018-12-27T03:51:27.872Z,97062.91
2018-12-27T03:56:52.771Z,97056.59
2018-12-27T03:59:22.779Z,97052.88
2018-12-27T04:01:52.855Z,97046.91
2018-12-27T04:04:33.983Z,97040.77
2018-12-27T04:07:15.490Z,97036.41
2018-12-27T04:09:45.658Z,97035.91
2018-12-27T04:12:15.880Z,97026.66
2018-12-27T04:15:23.839Z,97012.64
2018-12-27T04:17:53.888Z,97016.88
2018-12-27T04:20:23.655Z,97021.29
2018-12-27T04:23:12.696Z,97019.38
2018-12-27T04:28:17.851Z,97022.08
2018-12-27T04:31:06.551Z,97008.55
2018-12-27T04:33:36.385Z,97006.73
2018-12-27T04:36:08.513Z,97006.73
2018-12-27T04:38:57.551Z,97006.23
2018-12-27T04:41:27.319Z,97009.09
2018-12-27T04:44:01.306Z,97005.13
2018-12-27T04:46:31.246Z,96999.02
2018-12-27T04:49:20.261Z,97004.59
2018-12-27T04:51:50.483Z,97000.63
2018-12-27T04:54:20.165Z,96995.98
2018-12-27T04:56:49.940Z,97002.16
2018-12-27T05:02:21.000Z,96991.56
2018-12-27T05:04:50.920Z,96994.33
2018-12-27T05:07:20.673Z,96994.46
2018-12-27T05:10:09.806Z,96987.72
2018-12-27T05:13:18.854Z,96991.23
2018-12-27T05:15:48.572Z,96994.16
2018-12-27T05:21:14.111Z,97007.81
2018-12-27T05:23:44.366Z,96998.81
2018-12-27T05:26:33.421Z,96998.70
2018-12-27T05:29:03.266Z,97007.45
2018-12-27T05:31:33.034Z,96995.75
2018-12-27T05:34:26.147Z,97000.03
2018-12-27T05:37:12.309Z,97008.45
2018-12-27T05:39:42.097Z,97008.27
2018-12-27T05:42:30.802Z,97006.45
2018-12-27T05:47:49.201Z,96999.63
2018-12-27T05:50:38.395Z,96994.84
2018-12-27T05:53:27.099Z,96992.70
2018-12-27T05:55:56.984Z,97001.27
2018-12-27T05:58:46.006Z,96989.38
2018-12-27T06:01:34.795Z,96991.84
2018-12-27T06:04:07.174Z,96995.80
2018-12-27T06:06:56.244Z,96998.07
2018-12-27T06:09:25.983Z,97002.08
2018-12-27T06:11:55.773Z,97002.77
2018-12-27T06:14:25.791Z,97005.91
2018-12-27T06:17:14.822Z,97011.20
2018-12-27T06:19:44.602Z,97007.23
2018-12-27T06:22:14.339Z,96998.48
2018-12-27T06:25:03.460Z,97001.95
2018-12-27T06:27:33.450Z,96999.44
2018-12-27T06:30:03.281Z,96998.05
2018-12-27T06:32:32.998Z,96997.09
2018-12-27T06:35:22.061Z,96998.77
2018-12-27T06:37:51.885Z,97004.28
2018-12-27T06:40:21.691Z,97008.38
2018-12-27T06:43:10.752Z,97001.61
2018-12-27T06:45:59.506Z,96996.70
2018-12-27T06:48:29.304Z,97002.34
2018-12-27T06:51:18.022Z,97009.61
2018-12-27T06:53:48.137Z,96998.72
2018-12-27T06:56:17.934Z,96998.53
2018-12-27T06:59:06.963Z,96992.73
2018-12-27T07:01:37.249Z,96992.64
2018-12-27T07:04:07.022Z,96998.12
2018-12-27T07:06:56.059Z,97006.88
2018-12-27T07:09:25.940Z,97006.18
2018-12-27T07:11:56.486Z,96997.11
2018-12-27T07:14:27.257Z,96997.33
2018-12-27T07:16:57.173Z,97001.90
2018-12-27T07:19:26.956Z,97005.17
2018-12-27T07:22:17.288Z,97001.52
2018-12-27T07:24:47.099Z,97002.84
2018-12-27T07:27:16.831Z,97005.99
2018-12-27T07:32:41.094Z,97012.03
2018-12-27T07:35:10.831Z,97014.96
2018-12-27T07:37:59.887Z,97014.68
2018-12-27T07:43:07.290Z,97027.78
2018-12-27T07:45:56.029Z,97029.92
2018-12-27T07:48:25.846Z,97026.77
2018-12-27T07:50:55.601Z,97028.09
2018-12-27T07:53:44.724Z,97028.60
2018-12-27T07:56:14.451Z,97026.97
2018-12-27T08:01:58.284Z,97031.66
2018-12-27T08:04:43.303Z,97022.90
2018-12-27T08:07:01.102Z,97023.94
2018-12-27T08:09:50.026Z,97029.23
2018-12-27T08:12:19.914Z,97025.86
2018-12-27T08:15:08.746Z,97026.99
2018-12-27T08:17:57.334Z,97026.48
2018-12-27T08:20:45.853Z,97022.02
2018-12-27T08:23:34.616Z,97017.86
2018-12-27T08:26:24.052Z,97022.14
2018-12-27T08:29:08.970Z,97016.72
2018-12-27T08:31:52.871Z,97013.58
2018-12-27T08:34:34.089Z,97014.20
2018-12-27T08:37:03.865Z,97007.08
2018-12-27T08:39:35.785Z,97008.41
2018-12-27T08:45:00.794Z,97006.08
2018-12-27T08:47:34.734Z,96999.46
2018-12-27T08:50:04.969Z,97000.88
2018-12-27T08:52:34.654Z,97005.66
2018-12-27T08:55:04.479Z,97003.14
2018-12-27T08:57:55.918Z,96998.09
2018-12-27T09:00:25.658Z,96990.23
2018-12-27T09:02:55.382Z,96991.93
2018-12-27T09:05:44.438Z,96985.91
2018-12-27T09:08:14.417Z,96988.98
2018-12-27T09:13:40.026Z,96996.87
2018-12-27T09:16:09.852Z,96996.57
2018-12-27T09:18:39.621Z,96997.00
2018-12-27T09:21:09.485Z,96998.22
2018-12-27T09:23:58.765Z,96999.78
2018-12-27T09:27:11.106Z,97001.81
2018-12-27T09:38:32.084Z,97002.98
2018-12-27T09:41:20.627Z,96997.30
2018-12-27T09:44:01.179Z,97004.23
2018-12-27T09:46:33.531Z,96996.48
2018-12-27T09:52:02.246Z,97002.72
2018-12-27T09:54:30.272Z,97001.90
2018-12-27T09:57:19.074Z,96996.31
2018-12-27T09:59:50.455Z,96984.89
2018-12-27T10:02:39.437Z,96976.14
2018-12-27T10:05:33.751Z,96995.48
2018-12-27T10:07:59.968Z,96988.06
2018-12-27T10:10:48.706Z,96980.61
2018-12-27T10:13:18.623Z,96981.23
2018-12-27T10:15:48.471Z,96977.16
2018-12-27T10:18:37.940Z,96981.13
2018-12-27T10:21:07.698Z,96985.92
2018-12-27T10:23:37.552Z,96975.42
2018-12-27T10:26:07.385Z,96969.30
2018-12-27T10:31:34.107Z,96953.48
2018-12-27T10:34:03.833Z,96950.94
2018-12-27T10:37:11.899Z,96952.98
2018-12-27T10:42:37.354Z,96958.37
2018-12-27T10:45:26.587Z,96956.86
2018-12-27T10:47:56.729Z,96945.81
2018-12-27T10:50:45.600Z,96936.64
2018-12-27T10:53:15.390Z,96931.95
2018-12-27T10:55:45.428Z,96931.52
2018-12-27T10:59:12.219Z,96919.58
2018-12-27T11:02:01.048Z,96919.58
2018-12-27T11:04:30.853Z,96916.83
2018-12-27T11:07:39.876Z,96907.13
2018-12-27T11:10:11.331Z,96908.33
2018-12-27T11:12:41.788Z,96903.50
2018-12-27T11:20:56.013Z,96906.33
2018-12-27T11:24:05.292Z,96895.37
2018-12-27T11:26:59.378Z,96897.07
2018-12-27T11:29:29.185Z,96891.56
2018-12-27T11:35:10.497Z,96881.13
2018-12-27T11:46:10.565Z,96879.61
2018-12-27T11:48:40.562Z,96881.60
2018-12-27T11:54:30.449Z,96876.23
2018-12-27T11:57:19.401Z,96877.27
2018-12-27T11:59:49.137Z,96869.70
2018-12-27T12:02:38.918Z,96872.53
2018-12-27T12:08:09.950Z,96866.61
2018-12-27T12:10:58.688Z,96865.20
2018-12-27T12:13:28.447Z,96859.45
2018-12-27T12:15:59.089Z,96850.65
2018-12-27T12:18:48.143Z,96856.02
2018-12-27T12:28:16.321Z,96846.36
2018-12-27T12:30:48.711Z,96842.16
2018-12-27T12:33:37.423Z,96842.14
2018-12-27T12:36:10.667Z,96840.09
2018-12-27T12:38:38.907Z,96840.14
2018-12-27T12:41:27.611Z,96837.48
2018-12-27T12:43:57.479Z,96824.89
2018-12-27T12:46:27.190Z,96822.92
2018-12-27T12:48:57.348Z,96832.10
2018-12-27T12:52:04.118Z,96831.85
2018-12-27T12:54:59.083Z,96832.48
2018-12-27T12:57:48.334Z,96837.33
2018-12-27T13:00:37.550Z,96840.49
2018-12-27T13:03:07.850Z,96837.88
2018-12-27T13:05:57.159Z,96838.71
2018-12-27T13:08:49.260Z,96838.14
2018-12-27T13:11:20.510Z,96836.45
2018-12-27T13:14:10.053Z,96841.80
2018-12-27T13:16:39.951Z,96841.73
2018-12-27T13:19:49.309Z,96836.36
2018-12-27T13:22:19.286Z,96842.72
2018-12-27T13:24:49.763Z,96833.97
2018-12-27T13:27:40.711Z,96836.44
2018-12-27T13:43:04.993Z,96834.23
2018-12-27T13:52:17.617Z,96832.92
2018-12-27T13:57:26.800Z,96829.34
2018-12-27T13:59:56.915Z,96825.50
2018-12-27T14:02:26.749Z,96827.84
2018-12-27T14:11:34.189Z,96826.20
2018-12-27T14:14:22.945Z,96828.06
2018-12-27T14:20:15.955Z,96824.88
2018-12-27T14:31:30.373Z,96828.66
2018-12-27T14:37:02.969Z,96825.20
2018-12-27T14:40:12.477Z,96824.08
2018-12-27T14:43:01.362Z,96822.95
2018-12-27T14:45:31.448Z,96819.88
2018-12-27T14:48:12.767Z,96815.72
2018-12-27T14:50:44.973Z,96822.14
2018-12-27T14:53:18.793Z,96828.45
2018-12-27T14:59:16.541Z,96824.95
2018-12-27T15:01:49.472Z,96823.24
2018-12-27T15:07:28.694Z,96821.30
2018-12-27T15:10:02.645Z,96823.63
2018-12-27T15:13:12.752Z,96824.33
2018-12-27T15:15:50.234Z,96830.02
2018-12-27T15:24:54.222Z,96828.45
2018-12-27T15:27:43.762Z,96832.53
2018-12-27T15:30:13.560Z,96819.89
2018-12-27T15:33:24.449Z,96829.97
2018-12-27T15:36:13.143Z,96823.45
2018-12-27T15:38:43.248Z,96824.78
2018-12-27T15:41:36.840Z,96829.76
2018-12-27T15:44:48.982Z,96828.83
2018-12-27T15:50:52.039Z,96833.53
2018-12-27T15:53:31.450Z,96831.39
2018-12-27T16:05:12.911Z,96827.00
2018-12-27T16:08:02.686Z,96827.70
2018-12-27T16:11:11.212Z,96824.86
2018-12-27T16:13:41.025Z,96832.98
2018-12-27T16:16:30.681Z,96840.33
2018-12-27T16:19:00.372Z,96832.47
2018-12-27T16:21:30.293Z,96837.52
2018-12-27T16:24:00.660Z,96835.41
2018-12-27T16:26:49.678Z,96823.90
2018-12-27T16:29:39.657Z,96823.66
2018-12-27T16:32:48.700Z,96822.25
2018-12-27T16:38:09.922Z,96827.22
2018-12-27T16:40:39.680Z,96828.63
2018-12-27T16:43:09.394Z,96828.13
2018-12-27T16:45:59.387Z,96820.92
2018-12-27T16:48:31.337Z,96829.86
2018-12-27T16:51:01.098Z,96828.11
2018-12-27T16:53:52.361Z,96833.92
2018-12-27T16:56:22.512Z,96832.53
2018-12-27T17:02:28.199Z,96826.85
2018-12-27T17:05:15.909Z,96824.53
2018-12-27T17:07:46.511Z,96824.03
2018-12-27T17:10:54.307Z,96820.88
2018-12-27T17:13:57.580Z,96816.52
2018-12-27T17:19:24.559Z,96818.44
2018-12-27T17:22:13.324Z,96818.95
2018-12-27T17:24:46.459Z,96814.46
2018-12-27T17:27:16.186Z,96818.31
2018-12-27T17:30:06.689Z,96823.09
2018-12-27T17:33:23.112Z,96821.88
2018-12-27T17:36:04.996Z,96819.23
2018-12-27T17:38:24.884Z,96816.98
2018-12-27T17:44:15.536Z,96825.47
2018-12-27T17:46:45.439Z,96826.67
2018-12-27T17:49:18.420Z,96819.16
2018-12-27T17:52:07.480Z,96812.61
2018-12-27T17:57:13.550Z,96813.91
2018-12-27T18:00:02.347Z,96821.22
2018-12-27T18:02:32.468Z,96814.99
2018-12-27T18:07:58.047Z,96827.98
2018-12-27T18:13:38.043Z,96818.41
2018-12-27T18:22:43.382Z,96821.20
2018-12-27T18:26:00.211Z,96827.69
2018-12-27T18:28:30.168Z,96827.06
2018-12-27T18:36:45.741Z,96817.66
2018-12-27T18:39:16.492Z,96831.65
2018-12-27T18:42:38.371Z,96827.97
2018-12-27T18:51:39.702Z,96824.13
2018-12-27T18:54:09.498Z,96827.41
2018-12-27T18:59:37.377Z,96833.06
2018-12-27T19:02:07.364Z,96829.38
2018-12-27T19:04:49.055Z,96834.34
2018-12-27T19:07:30.596Z,96827.43
2018-12-27T19:16:11.058Z,96824.57
2018-12-27T19:19:07.310Z,96829.72
2018-12-27T19:24:37.530Z,96828.85
2018-12-27T19:30:03.112Z,96826.64
2018-12-27T19:35:54.752Z,96827.58
2018-12-27T19:39:04.094Z,96828.17
2018-12-27T19:41:36.667Z,96823.63
2018-12-27T19:44:40.051Z,96828.77
2018-12-27T19:50:24.206Z,96833.94
2018-12-27T19:52:54.126Z,96835.63
2018-12-27T19:55:47.341Z,96839.02
2018-12-27T19:58:17.507Z,96842.48
2018-12-27T20:01:30.063Z,96845.80
2018-12-27T20:04:19.228Z,96849.75
2018-12-27T20:06:49.073Z,96847.34
2018-12-27T20:13:08.797Z,96842.69
2018-12-27T20:15:38.643Z,96840.99
2018-12-27T20:18:27.500Z,96848.16
2018-12-27T20:21:16.339Z,96852.22
2018-12-27T20:23:51.471Z,96848.08
2018-12-27T20:26:30.391Z,96850.08
2018-12-27T20:29:00.542Z,96845.38
2018-12-27T20:31:49.401Z,96846.06
2018-12-27T20:34:47.006Z,96846.74
2018-12-27T20:37:17.606Z,96847.73
2018-12-27T20:40:07.335Z,96847.42
2018-12-27T20:42:56.120Z,96846.31
2018-12-27T20:45:26.238Z,96844.50
2018-12-27T20:48:15.535Z,96841.05
2018-12-27T20:50:45.426Z,96840.02
2018-12-27T20:56:29.604Z,96833.50
2018-12-27T20:58:59.511Z,96839.91
2018-12-27T21:04:17.534Z,96828.30
2018-12-27T21:09:28.374Z,96830.43
2018-12-27T21:15:17.408Z,96824.84
2018-12-27T21:18:25.318Z,96817.75
2018-12-27T21:21:16.335Z,96814.58
2018-12-27T21:23:48.406Z,96808.72
2018-12-27T21:29:15.836Z,96806.78
2018-12-27T21:34:59.688Z,96802.92
2018-12-27T21:37:48.431Z,96803.84
2018-12-27T21:42:53.574Z,96795.56
2018-12-27T21:45:42.642Z,96792.80
2018-12-27T21:54:05.218Z,96785.88
2018-12-27T21:56:54.255Z,96779.00
2018-12-27T22:02:37.278Z,96787.66
2018-12-27T22:05:18.306Z,96786.66
2018-12-27T22:08:00.839Z,96780.70
2018-12-27T22:10:19.547Z,96781.52
2018-12-27T22:13:09.379Z,96775.60
2018-12-27T22:15:58.519Z,96772.28
2018-12-27T22:18:47.965Z,96773.20
2018-12-27T22:24:16.353Z,96773.52
2018-12-27T22:27:23.882Z,96770.96
2018-12-27T22:30:32.980Z,96767.06
2018-12-27T22:33:13.183Z,96777.16
2018-12-27T22:36:01.879Z,96771.96
2018-12-27T22:38:35.591Z,96771.65
2018-12-27T22:41:21.956Z,96767.01
2018-12-27T22:44:26.282Z,96761.28
2018-12-27T22:46:46.172Z,96769.02
2018-12-27T22:49:17.964Z,96765.38
2018-12-27T22:52:07.021Z,96773.73
2018-12-27T22:54:36.823Z,96770.20
2018-12-27T22:57:46.140Z,96766.24
2018-12-27T23:00:54.198Z,96768.19
2018-12-27T23:03:24.216Z,96769.20
2018-12-27T23:09:06.599Z,96774.73
2018-12-27T23:11:36.385Z,96768.52
2018-12-27T23:14:25.407Z,96766.51
2018-12-27T23:16:55.260Z,96775.52
2018-12-27T23:19:24.976Z,96768.75
2018-12-27T23:22:16.080Z,96767.83
2018-12-27T23:30:39.501Z,96770.52
2018-12-27T23:35:46.654Z,96775.73
2018-12-27T23:41:12.385Z,96774.70
2018-12-27T23:44:02.406Z,96773.88
2018-12-27T23:46:32.185Z,96770.75
2018-12-27T23:49:02.023Z,96773.38
2018-12-27T23:51:31.725Z,96773.09
2018-12-27T23:57:36.076Z,96775.02
